sensor_id;sensor_type;location;lat;lon;timestamp;P1;durP1;ratioP1;P2;durP2;ratioP2
59052;SDS011;44843;44.728;10.396;2023-01-10T00:01:47;8.95;;;6.20;;
59052;SDS011;44843;44.728;10.396;2023-01-10T00:04:12;11.45;;;7.38;;
59052;SDS011;44843;44.728;10.396;2023-01-10T00:06:38;10.38;;;6.00;;
59052;SDS011;44843;44.728;10.396;2023-01-10T00:09:03;10.32;;;6.05;;
59052;SDS011;44843;44.728;10.396;2023-01-10T00:11:29;10.75;;;6.93;;
59052;SDS011;44843;44.728;10.396;2023-01-10T00:14:12;12.60;;;6.40;;
59052;SDS011;44843;44.728;10.396;2023-01-10T00:16:38;8.82;;;5.50;;
59052;SDS011;44843;44.728;10.396;2023-01-10T00:19:04;8.38;;;5.75;;
59052;SDS011;44843;44.728;10.396;2023-01-10T00:21:30;12.88;;;6.53;;
59052;SDS011;44843;44.728;10.396;2023-01-10T00:23:55;8.95;;;5.97;;
59052;SDS011;44843;44.728;10.396;2023-01-10T00:26:39;7.93;;;5.30;;
59052;SDS011;44843;44.728;10.396;2023-01-10T00:29:04;8.25;;;5.53;;
59052;SDS011;44843;44.728;10.396;2023-01-10T00:31:31;9.57;;;5.30;;
59052;SDS011;44843;44.728;10.396;2023-01-10T00:33:57;8.18;;;4.82;;
59052;SDS011;44843;44.728;10.396;2023-01-10T00:36:22;9.27;;;5.25;;
59052;SDS011;44843;44.728;10.396;2023-01-10T00:38:48;10.15;;;5.95;;
59052;SDS011;44843;44.728;10.396;2023-01-10T00:41:14;10.00;;;6.10;;
59052;SDS011;44843;44.728;10.396;2023-01-10T00:43:58;6.63;;;4.55;;
59052;SDS011;44843;44.728;10.396;2023-01-10T00:46:23;6.78;;;4.80;;
59052;SDS011;44843;44.728;10.396;2023-01-10T00:48:50;8.25;;;5.28;;
59052;SDS011;44843;44.728;10.396;2023-01-10T00:51:15;7.53;;;4.68;;
59052;SDS011;44843;44.728;10.396;2023-01-10T00:53:40;6.70;;;4.40;;
59052;SDS011;44843;44.728;10.396;2023-01-10T00:56:06;6.38;;;4.40;;
59052;SDS011;44843;44.728;10.396;2023-01-10T00:58:31;7.15;;;4.50;;
59052;SDS011;44843;44.728;10.396;2023-01-10T01:00:58;6.50;;;4.47;;
59052;SDS011;44843;44.728;10.396;2023-01-10T01:03:23;8.75;;;4.70;;
59052;SDS011;44843;44.728;10.396;2023-01-10T01:05:49;6.22;;;4.07;;
59052;SDS011;44843;44.728;10.396;2023-01-10T01:08:15;8.57;;;4.10;;
59052;SDS011;44843;44.728;10.396;2023-01-10T01:10:41;7.80;;;4.57;;
59052;SDS011;44843;44.728;10.396;2023-01-10T01:13:08;7.55;;;4.78;;
59052;SDS011;44843;44.728;10.396;2023-01-10T01:15:35;8.85;;;5.05;;
59052;SDS011;44843;44.728;10.396;2023-01-10T01:18:01;6.95;;;4.47;;
59052;SDS011;44843;44.728;10.396;2023-01-10T01:20:27;6.65;;;4.40;;
59052;SDS011;44843;44.728;10.396;2023-01-10T01:22:53;6.95;;;4.00;;
59052;SDS011;44843;44.728;10.396;2023-01-10T01:25:18;6.05;;;3.67;;
59052;SDS011;44843;44.728;10.396;2023-01-10T01:27:44;8.88;;;4.35;;
59052;SDS011;44843;44.728;10.396;2023-01-10T01:30:09;4.93;;;3.40;;
59052;SDS011;44843;44.728;10.396;2023-01-10T01:32:35;6.95;;;3.35;;
59052;SDS011;44843;44.728;10.396;2023-01-10T01:35:01;4.70;;;3.30;;
59052;SDS011;44843;44.728;10.396;2023-01-10T01:37:26;8.77;;;3.78;;
59052;SDS011;44843;44.728;10.396;2023-01-10T01:39:52;5.75;;;3.35;;
59052;SDS011;44843;44.728;10.396;2023-01-10T01:42:24;7.30;;;3.60;;
59052;SDS011;44843;44.728;10.396;2023-01-10T01:47:35;9.35;;;4.15;;
59052;SDS011;44843;44.728;10.396;2023-01-10T01:50:13;9.25;;;4.25;;
59052;SDS011;44843;44.728;10.396;2023-01-10T01:52:42;6.15;;;4.30;;
59052;SDS011;44843;44.728;10.396;2023-01-10T01:55:07;13.98;;;5.25;;
59052;SDS011;44843;44.728;10.396;2023-01-10T01:57:34;7.72;;;3.92;;
59052;SDS011;44843;44.728;10.396;2023-01-10T02:00:01;6.53;;;3.42;;
59052;SDS011;44843;44.728;10.396;2023-01-10T02:02:32;5.78;;;3.22;;
59052;SDS011;44843;44.728;10.396;2023-01-10T02:05:02;4.60;;;2.78;;
59052;SDS011;44843;44.728;10.396;2023-01-10T02:07:33;3.90;;;3.00;;
59052;SDS011;44843;44.728;10.396;2023-01-10T02:12:45;6.43;;;3.30;;
59052;SDS011;44843;44.728;10.396;2023-01-10T02:15:13;6.88;;;3.08;;
59052;SDS011;44843;44.728;10.396;2023-01-10T02:17:40;4.93;;;2.95;;
59052;SDS011;44843;44.728;10.396;2023-01-10T02:20:09;6.50;;;3.42;;
59052;SDS011;44843;44.728;10.396;2023-01-10T02:36:48;4.53;;;2.55;;
59052;SDS011;44843;44.728;10.396;2023-01-10T02:42:06;4.20;;;2.30;;
59052;SDS011;44843;44.728;10.396;2023-01-10T02:47:09;6.15;;;3.28;;
59052;SDS011;44843;44.728;10.396;2023-01-10T02:49:41;5.25;;;3.22;;
59052;SDS011;44843;44.728;10.396;2023-01-10T02:52:08;4.13;;;2.20;;
59052;SDS011;44843;44.728;10.396;2023-01-10T02:54:34;4.68;;;2.80;;
59052;SDS011;44843;44.728;10.396;2023-01-10T03:05:48;7.15;;;2.90;;
59052;SDS011;44843;44.728;10.396;2023-01-10T03:08:21;3.22;;;2.47;;
59052;SDS011;44843;44.728;10.396;2023-01-10T03:13:28;3.75;;;2.30;;
59052;SDS011;44843;44.728;10.396;2023-01-10T03:16:01;5.78;;;2.40;;
59052;SDS011;44843;44.728;10.396;2023-01-10T03:18:32;3.85;;;2.33;;
59052;SDS011;44843;44.728;10.396;2023-01-10T03:21:02;3.05;;;2.17;;
59052;SDS011;44843;44.728;10.396;2023-01-10T03:23:31;3.10;;;2.40;;
59052;SDS011;44843;44.728;10.396;2023-01-10T03:25:57;2.72;;;1.98;;
59052;SDS011;44843;44.728;10.396;2023-01-10T03:28:38;2.45;;;2.10;;
59052;SDS011;44843;44.728;10.396;2023-01-10T03:31:12;5.75;;;2.30;;
59052;SDS011;44843;44.728;10.396;2023-01-10T03:33:40;4.25;;;2.50;;
59052;SDS011;44843;44.728;10.396;2023-01-10T03:36:10;3.42;;;2.63;;
59052;SDS011;44843;44.728;10.396;2023-01-10T03:41:39;3.33;;;2.10;;
59052;SDS011;44843;44.728;10.396;2023-01-10T03:44:16;2.45;;;1.80;;
59052;SDS011;44843;44.728;10.396;2023-01-10T03:49:29;4.00;;;1.65;;
59052;SDS011;44843;44.728;10.396;2023-01-10T03:51:58;2.05;;;1.60;;
59052;SDS011;44843;44.728;10.396;2023-01-10T03:54:25;7.43;;;2.10;;
59052;SDS011;44843;44.728;10.396;2023-01-10T03:56:51;2.03;;;1.55;;
59052;SDS011;44843;44.728;10.396;2023-01-10T03:59:16;1.83;;;1.52;;
59052;SDS011;44843;44.728;10.396;2023-01-10T04:01:50;2.33;;;1.60;;
59052;SDS011;44843;44.728;10.396;2023-01-10T04:04:16;2.20;;;1.50;;
59052;SDS011;44843;44.728;10.396;2023-01-10T04:06:41;3.85;;;1.63;;
59052;SDS011;44843;44.728;10.396;2023-01-10T04:09:07;2.75;;;2.00;;
59052;SDS011;44843;44.728;10.396;2023-01-10T04:11:33;2.88;;;1.50;;
59052;SDS011;44843;44.728;10.396;2023-01-10T04:13:58;1.77;;;1.40;;
59052;SDS011;44843;44.728;10.396;2023-01-10T04:16:24;2.03;;;1.70;;
59052;SDS011;44843;44.728;10.396;2023-01-10T04:18:49;1.92;;;1.50;;
59052;SDS011;44843;44.728;10.396;2023-01-10T04:21:14;2.70;;;2.08;;
59052;SDS011;44843;44.728;10.396;2023-01-10T04:23:40;2.80;;;1.60;;
59052;SDS011;44843;44.728;10.396;2023-01-10T04:26:05;2.17;;;1.60;;
59052;SDS011;44843;44.728;10.396;2023-01-10T04:28:31;3.53;;;1.85;;
59052;SDS011;44843;44.728;10.396;2023-01-10T04:30:56;1.95;;;1.58;;
59052;SDS011;44843;44.728;10.396;2023-01-10T04:33:21;1.95;;;1.23;;
59052;SDS011;44843;44.728;10.396;2023-01-10T04:35:47;2.88;;;1.40;;
59052;SDS011;44843;44.728;10.396;2023-01-10T04:38:13;1.58;;;1.10;;
59052;SDS011;44843;44.728;10.396;2023-01-10T04:40:40;1.88;;;1.33;;
59052;SDS011;44843;44.728;10.396;2023-01-10T04:43:06;1.33;;;0.75;;
59052;SDS011;44843;44.728;10.396;2023-01-10T04:45:31;0.80;;;0.60;;
59052;SDS011;44843;44.728;10.396;2023-01-10T04:47:56;0.68;;;0.40;;
59052;SDS011;44843;44.728;10.396;2023-01-10T04:50:23;0.50;;;0.50;;
59052;SDS011;44843;44.728;10.396;2023-01-10T04:52:49;1.35;;;0.60;;
59052;SDS011;44843;44.728;10.396;2023-01-10T04:55:15;0.30;;;0.30;;
59052;SDS011;44843;44.728;10.396;2023-01-10T04:57:40;0.30;;;0.30;;
59052;SDS011;44843;44.728;10.396;2023-01-10T05:00:06;0.55;;;0.50;;
59052;SDS011;44843;44.728;10.396;2023-01-10T05:02:32;1.67;;;0.40;;
59052;SDS011;44843;44.728;10.396;2023-01-10T05:04:57;0.98;;;0.40;;
59052;SDS011;44843;44.728;10.396;2023-01-10T05:07:23;0.98;;;0.60;;
59052;SDS011;44843;44.728;10.396;2023-01-10T05:09:48;0.43;;;0.43;;
59052;SDS011;44843;44.728;10.396;2023-01-10T05:12:13;0.70;;;0.30;;
59052;SDS011;44843;44.728;10.396;2023-01-10T05:14:39;0.40;;;0.40;;
59052;SDS011;44843;44.728;10.396;2023-01-10T05:17:04;0.50;;;0.40;;
59052;SDS011;44843;44.728;10.396;2023-01-10T05:19:30;0.40;;;0.40;;
59052;SDS011;44843;44.728;10.396;2023-01-10T05:21:55;0.40;;;0.40;;
59052;SDS011;44843;44.728;10.396;2023-01-10T05:24:21;4.15;;;0.50;;
59052;SDS011;44843;44.728;10.396;2023-01-10T05:26:46;1.75;;;0.60;;
59052;SDS011;44843;44.728;10.396;2023-01-10T05:29:11;0.75;;;0.40;;
59052;SDS011;44843;44.728;10.396;2023-01-10T05:31:38;0.32;;;0.32;;
59052;SDS011;44843;44.728;10.396;2023-01-10T05:34:04;0.40;;;0.40;;
59052;SDS011;44843;44.728;10.396;2023-01-10T05:36:29;0.30;;;0.30;;
59052;SDS011;44843;44.728;10.396;2023-01-10T05:38:54;0.32;;;0.32;;
59052;SDS011;44843;44.728;10.396;2023-01-10T05:41:20;0.40;;;0.40;;
59052;SDS011;44843;44.728;10.396;2023-01-10T05:43:45;0.50;;;0.40;;
59052;SDS011;44843;44.728;10.396;2023-01-10T05:46:10;0.30;;;0.30;;
59052;SDS011;44843;44.728;10.396;2023-01-10T05:48:36;1.30;;;0.40;;
59052;SDS011;44843;44.728;10.396;2023-01-10T05:51:02;0.70;;;0.50;;
59052;SDS011;44843;44.728;10.396;2023-01-10T05:53:27;0.40;;;0.40;;
59052;SDS011;44843;44.728;10.396;2023-01-10T05:55:57;0.68;;;0.50;;
59052;SDS011;44843;44.728;10.396;2023-01-10T05:58:24;0.40;;;0.40;;
59052;SDS011;44843;44.728;10.396;2023-01-10T06:00:50;0.73;;;0.52;;
59052;SDS011;44843;44.728;10.396;2023-01-10T06:03:15;0.95;;;0.70;;
59052;SDS011;44843;44.728;10.396;2023-01-10T06:05:41;0.70;;;0.57;;
59052;SDS011;44843;44.728;10.396;2023-01-10T06:08:06;0.82;;;0.52;;
59052;SDS011;44843;44.728;10.396;2023-01-10T06:10:31;0.70;;;0.50;;
59052;SDS011;44843;44.728;10.396;2023-01-10T06:12:57;0.43;;;0.43;;
59052;SDS011;44843;44.728;10.396;2023-01-10T06:15:22;0.40;;;0.40;;
59052;SDS011;44843;44.728;10.396;2023-01-10T06:17:48;0.40;;;0.40;;
59052;SDS011;44843;44.728;10.396;2023-01-10T06:20:13;0.32;;;0.30;;
59052;SDS011;44843;44.728;10.396;2023-01-10T06:22:42;0.30;;;0.30;;
59052;SDS011;44843;44.728;10.396;2023-01-10T06:25:08;1.67;;;0.32;;
59052;SDS011;44843;44.728;10.396;2023-01-10T06:27:34;0.35;;;0.35;;
59052;SDS011;44843;44.728;10.396;2023-01-10T06:30:02;0.40;;;0.40;;
59052;SDS011;44843;44.728;10.396;2023-01-10T06:32:27;0.52;;;0.40;;
59052;SDS011;44843;44.728;10.396;2023-01-10T06:34:53;0.40;;;0.40;;
59052;SDS011;44843;44.728;10.396;2023-01-10T06:37:18;0.63;;;0.40;;
59052;SDS011;44843;44.728;10.396;2023-01-10T06:39:43;0.47;;;0.40;;
59052;SDS011;44843;44.728;10.396;2023-01-10T06:42:10;0.40;;;0.40;;
59052;SDS011;44843;44.728;10.396;2023-01-10T06:44:36;0.57;;;0.50;;
59052;SDS011;44843;44.728;10.396;2023-01-10T06:47:01;0.43;;;0.30;;
59052;SDS011;44843;44.728;10.396;2023-01-10T06:49:27;0.90;;;0.40;;
59052;SDS011;44843;44.728;10.396;2023-01-10T06:51:53;0.30;;;0.30;;
59052;SDS011;44843;44.728;10.396;2023-01-10T06:54:18;0.35;;;0.30;;
59052;SDS011;44843;44.728;10.396;2023-01-10T06:56:45;0.32;;;0.32;;
59052;SDS011;44843;44.728;10.396;2023-01-10T06:59:12;1.58;;;0.40;;
59052;SDS011;44843;44.728;10.396;2023-01-10T07:01:37;1.15;;;0.52;;
59052;SDS011;44843;44.728;10.396;2023-01-10T07:04:03;0.30;;;0.30;;
59052;SDS011;44843;44.728;10.396;2023-01-10T07:06:28;1.90;;;1.25;;
59052;SDS011;44843;44.728;10.396;2023-01-10T07:08:54;2.42;;;1.15;;
59052;SDS011;44843;44.728;10.396;2023-01-10T07:11:19;1.33;;;0.85;;
59052;SDS011;44843;44.728;10.396;2023-01-10T07:13:44;2.85;;;1.20;;
59052;SDS011;44843;44.728;10.396;2023-01-10T07:16:11;2.88;;;1.25;;
59052;SDS011;44843;44.728;10.396;2023-01-10T07:18:39;1.88;;;1.13;;
59052;SDS011;44843;44.728;10.396;2023-01-10T07:21:05;0.95;;;0.45;;
59052;SDS011;44843;44.728;10.396;2023-01-10T07:23:31;1.02;;;0.73;;
59052;SDS011;44843;44.728;10.396;2023-01-10T07:25:57;0.95;;;0.68;;
59052;SDS011;44843;44.728;10.396;2023-01-10T07:28:26;2.72;;;0.80;;
59052;SDS011;44843;44.728;10.396;2023-01-10T07:30:51;1.48;;;0.60;;
59052;SDS011;44843;44.728;10.396;2023-01-10T07:33:16;1.85;;;0.60;;
59052;SDS011;44843;44.728;10.396;2023-01-10T07:35:42;2.58;;;0.55;;
59052;SDS011;44843;44.728;10.396;2023-01-10T07:38:07;0.50;;;0.50;;
59052;SDS011;44843;44.728;10.396;2023-01-10T07:40:33;0.55;;;0.47;;
59052;SDS011;44843;44.728;10.396;2023-01-10T07:42:59;0.60;;;0.40;;
59052;SDS011;44843;44.728;10.396;2023-01-10T07:45:25;1.48;;;0.45;;
59052;SDS011;44843;44.728;10.396;2023-01-10T07:47:57;2.17;;;0.50;;
59052;SDS011;44843;44.728;10.396;2023-01-10T07:50:25;0.95;;;0.50;;
59052;SDS011;44843;44.728;10.396;2023-01-10T07:52:51;1.23;;;0.40;;
59052;SDS011;44843;44.728;10.396;2023-01-10T07:55:17;0.38;;;0.30;;
59052;SDS011;44843;44.728;10.396;2023-01-10T07:57:42;0.40;;;0.40;;
59052;SDS011;44843;44.728;10.396;2023-01-10T08:00:09;0.75;;;0.50;;
59052;SDS011;44843;44.728;10.396;2023-01-10T08:02:34;0.30;;;0.30;;
59052;SDS011;44843;44.728;10.396;2023-01-10T08:05:00;0.40;;;0.40;;
59052;SDS011;44843;44.728;10.396;2023-01-10T08:07:27;0.30;;;0.30;;
59052;SDS011;44843;44.728;10.396;2023-01-10T08:09:53;1.13;;;0.60;;
59052;SDS011;44843;44.728;10.396;2023-01-10T08:12:19;0.40;;;0.40;;
59052;SDS011;44843;44.728;10.396;2023-01-10T08:14:45;0.40;;;0.40;;
59052;SDS011;44843;44.728;10.396;2023-01-10T08:17:10;0.57;;;0.50;;
59052;SDS011;44843;44.728;10.396;2023-01-10T08:19:35;1.00;;;0.57;;
59052;SDS011;44843;44.728;10.396;2023-01-10T08:22:01;0.50;;;0.50;;
59052;SDS011;44843;44.728;10.396;2023-01-10T08:24:27;0.43;;;0.40;;
59052;SDS011;44843;44.728;10.396;2023-01-10T08:26:52;3.42;;;0.80;;
59052;SDS011;44843;44.728;10.396;2023-01-10T08:29:18;0.73;;;0.65;;
59052;SDS011;44843;44.728;10.396;2023-01-10T08:31:43;0.60;;;0.30;;
59052;SDS011;44843;44.728;10.396;2023-01-10T08:34:09;1.20;;;0.60;;
59052;SDS011;44843;44.728;10.396;2023-01-10T08:36:37;0.50;;;0.50;;
59052;SDS011;44843;44.728;10.396;2023-01-10T08:39:02;0.47;;;0.40;;
59052;SDS011;44843;44.728;10.396;2023-01-10T08:41:28;1.52;;;0.55;;
59052;SDS011;44843;44.728;10.396;2023-01-10T08:43:53;0.40;;;0.40;;
59052;SDS011;44843;44.728;10.396;2023-01-10T08:46:18;0.50;;;0.50;;
59052;SDS011;44843;44.728;10.396;2023-01-10T08:48:44;1.23;;;0.60;;
59052;SDS011;44843;44.728;10.396;2023-01-10T08:51:10;0.40;;;0.40;;
59052;SDS011;44843;44.728;10.396;2023-01-10T08:53:35;0.28;;;0.28;;
59052;SDS011;44843;44.728;10.396;2023-01-10T08:56:03;0.40;;;0.40;;
59052;SDS011;44843;44.728;10.396;2023-01-10T08:58:29;0.55;;;0.47;;
59052;SDS011;44843;44.728;10.396;2023-01-10T09:00:54;0.90;;;0.50;;
59052;SDS011;44843;44.728;10.396;2023-01-10T09:03:20;0.90;;;0.80;;
59052;SDS011;44843;44.728;10.396;2023-01-10T09:05:45;0.50;;;0.50;;
59052;SDS011;44843;44.728;10.396;2023-01-10T09:08:10;1.13;;;0.57;;
59052;SDS011;44843;44.728;10.396;2023-01-10T09:10:36;0.30;;;0.30;;
59052;SDS011;44843;44.728;10.396;2023-01-10T09:13:01;0.20;;;0.20;;
59052;SDS011;44843;44.728;10.396;2023-01-10T09:15:32;0.32;;;0.32;;
59052;SDS011;44843;44.728;10.396;2023-01-10T09:18:02;0.30;;;0.30;;
59052;SDS011;44843;44.728;10.396;2023-01-10T09:20:29;0.40;;;0.40;;
59052;SDS011;44843;44.728;10.396;2023-01-10T09:22:57;1.50;;;0.43;;
59052;SDS011;44843;44.728;10.396;2023-01-10T09:25:23;0.57;;;0.40;;
59052;SDS011;44843;44.728;10.396;2023-01-10T09:27:55;0.38;;;0.38;;
59052;SDS011;44843;44.728;10.396;2023-01-10T09:30:24;0.57;;;0.50;;
59052;SDS011;44843;44.728;10.396;2023-01-10T09:32:51;1.33;;;0.65;;
59052;SDS011;44843;44.728;10.396;2023-01-10T09:35:17;0.30;;;0.30;;
59052;SDS011;44843;44.728;10.396;2023-01-10T09:37:42;0.68;;;0.50;;
59052;SDS011;44843;44.728;10.396;2023-01-10T09:40:08;0.40;;;0.40;;
59052;SDS011;44843;44.728;10.396;2023-01-10T09:42:42;0.40;;;0.40;;
59052;SDS011;44843;44.728;10.396;2023-01-10T09:45:16;2.28;;;0.40;;
59052;SDS011;44843;44.728;10.396;2023-01-10T09:52:57;0.55;;;0.40;;
59052;SDS011;44843;44.728;10.396;2023-01-10T09:55:32;0.60;;;0.60;;
59052;SDS011;44843;44.728;10.396;2023-01-10T09:58:00;0.50;;;0.50;;
59052;SDS011;44843;44.728;10.396;2023-01-10T10:00:33;0.40;;;0.40;;
59052;SDS011;44843;44.728;10.396;2023-01-10T10:03:04;0.50;;;0.40;;
59052;SDS011;44843;44.728;10.396;2023-01-10T10:05:41;0.85;;;0.30;;
59052;SDS011;44843;44.728;10.396;2023-01-10T10:08:07;0.43;;;0.38;;
59052;SDS011;44843;44.728;10.396;2023-01-10T10:10:41;0.30;;;0.30;;
59052;SDS011;44843;44.728;10.396;2023-01-10T10:18:54;0.32;;;0.32;;
59052;SDS011;44843;44.728;10.396;2023-01-10T10:26:54;0.60;;;0.40;;
59052;SDS011;44843;44.728;10.396;2023-01-10T10:35:37;1.35;;;0.82;;
59052;SDS011;44843;44.728;10.396;2023-01-10T10:38:08;0.45;;;0.45;;
59052;SDS011;44843;44.728;10.396;2023-01-10T10:40:43;0.38;;;0.38;;
59052;SDS011;44843;44.728;10.396;2023-01-10T10:43:20;1.00;;;0.60;;
59052;SDS011;44843;44.728;10.396;2023-01-10T10:45:54;0.57;;;0.40;;
59052;SDS011;44843;44.728;10.396;2023-01-10T10:48:26;0.40;;;0.40;;
59052;SDS011;44843;44.728;10.396;2023-01-10T10:53:23;0.40;;;0.40;;
59052;SDS011;44843;44.728;10.396;2023-01-10T10:55:49;0.43;;;0.43;;
59052;SDS011;44843;44.728;10.396;2023-01-10T10:58:15;0.30;;;0.30;;
59052;SDS011;44843;44.728;10.396;2023-01-10T11:00:42;0.60;;;0.40;;
59052;SDS011;44843;44.728;10.396;2023-01-10T11:03:14;0.40;;;0.40;;
59052;SDS011;44843;44.728;10.396;2023-01-10T11:05:43;0.40;;;0.40;;
59052;SDS011;44843;44.728;10.396;2023-01-10T11:08:11;1.10;;;0.43;;
59052;SDS011;44843;44.728;10.396;2023-01-10T11:10:47;1.10;;;0.55;;
59052;SDS011;44843;44.728;10.396;2023-01-10T11:13:24;0.40;;;0.40;;
59052;SDS011;44843;44.728;10.396;2023-01-10T11:16:00;0.45;;;0.45;;
59052;SDS011;44843;44.728;10.396;2023-01-10T11:18:29;0.75;;;0.30;;
59052;SDS011;44843;44.728;10.396;2023-01-10T11:20:56;0.43;;;0.40;;
59052;SDS011;44843;44.728;10.396;2023-01-10T11:23:40;2.50;;;0.82;;
59052;SDS011;44843;44.728;10.396;2023-01-10T11:26:07;0.35;;;0.35;;
59052;SDS011;44843;44.728;10.396;2023-01-10T11:28:46;0.70;;;0.40;;
59052;SDS011;44843;44.728;10.396;2023-01-10T11:31:11;0.88;;;0.50;;
59052;SDS011;44843;44.728;10.396;2023-01-10T11:33:37;0.60;;;0.57;;
59052;SDS011;44843;44.728;10.396;2023-01-10T11:36:05;1.65;;;0.50;;
59052;SDS011;44843;44.728;10.396;2023-01-10T11:38:33;1.35;;;0.43;;
59052;SDS011;44843;44.728;10.396;2023-01-10T11:41:03;0.52;;;0.52;;
59052;SDS011;44843;44.728;10.396;2023-01-10T11:43:47;0.30;;;0.30;;
59052;SDS011;44843;44.728;10.396;2023-01-10T11:46:16;0.40;;;0.40;;
59052;SDS011;44843;44.728;10.396;2023-01-10T11:48:52;0.50;;;0.50;;
59052;SDS011;44843;44.728;10.396;2023-01-10T11:51:26;1.30;;;0.40;;
59052;SDS011;44843;44.728;10.396;2023-01-10T11:54:03;0.60;;;0.50;;
59052;SDS011;44843;44.728;10.396;2023-01-10T11:56:32;1.15;;;0.70;;
59052;SDS011;44843;44.728;10.396;2023-01-10T11:59:06;0.65;;;0.60;;
59052;SDS011;44843;44.728;10.396;2023-01-10T12:07:00;0.50;;;0.50;;
59052;SDS011;44843;44.728;10.396;2023-01-10T12:14:40;0.95;;;0.70;;
59052;SDS011;44843;44.728;10.396;2023-01-10T12:17:06;0.47;;;0.40;;
59052;SDS011;44843;44.728;10.396;2023-01-10T12:19:43;1.00;;;0.50;;
59052;SDS011;44843;44.728;10.396;2023-01-10T12:22:09;0.60;;;0.60;;
59052;SDS011;44843;44.728;10.396;2023-01-10T12:24:38;1.65;;;0.50;;
59052;SDS011;44843;44.728;10.396;2023-01-10T12:27:10;1.50;;;0.57;;
59052;SDS011;44843;44.728;10.396;2023-01-10T12:32:42;0.40;;;0.40;;
59052;SDS011;44843;44.728;10.396;2023-01-10T12:35:14;0.60;;;0.43;;
59052;SDS011;44843;44.728;10.396;2023-01-10T12:43:12;1.13;;;0.73;;
59052;SDS011;44843;44.728;10.396;2023-01-10T12:46:18;1.45;;;0.50;;
59052;SDS011;44843;44.728;10.396;2023-01-10T12:48:49;0.47;;;0.35;;
59052;SDS011;44843;44.728;10.396;2023-01-10T12:51:21;0.65;;;0.55;;
59052;SDS011;44843;44.728;10.396;2023-01-10T12:53:52;1.42;;;0.43;;
59052;SDS011;44843;44.728;10.396;2023-01-10T12:56:22;0.85;;;0.43;;
59052;SDS011;44843;44.728;10.396;2023-01-10T12:58:52;0.30;;;0.30;;
59052;SDS011;44843;44.728;10.396;2023-01-10T13:03:53;0.90;;;0.70;;
59052;SDS011;44843;44.728;10.396;2023-01-10T13:06:28;0.43;;;0.43;;
59052;SDS011;44843;44.728;10.396;2023-01-10T13:08:58;0.45;;;0.43;;
59052;SDS011;44843;44.728;10.396;2023-01-10T13:11:29;0.77;;;0.50;;
59052;SDS011;44843;44.728;10.396;2023-01-10T13:14:01;2.35;;;0.60;;
59052;SDS011;44843;44.728;10.396;2023-01-10T13:18:58;1.95;;;0.70;;
59052;SDS011;44843;44.728;10.396;2023-01-10T13:21:36;1.27;;;0.60;;
59052;SDS011;44843;44.728;10.396;2023-01-10T13:31:53;1.15;;;0.52;;
59052;SDS011;44843;44.728;10.396;2023-01-10T13:34:21;0.43;;;0.43;;
59052;SDS011;44843;44.728;10.396;2023-01-10T13:36:56;1.45;;;0.60;;
59052;SDS011;44843;44.728;10.396;2023-01-10T13:52:51;1.75;;;0.40;;
59052;SDS011;44843;44.728;10.396;2023-01-10T14:08:57;1.98;;;0.50;;
59052;SDS011;44843;44.728;10.396;2023-01-10T14:14:43;1.38;;;0.50;;
59052;SDS011;44843;44.728;10.396;2023-01-10T14:19:59;2.15;;;0.73;;
59052;SDS011;44843;44.728;10.396;2023-01-10T14:22:40;1.05;;;0.73;;
59052;SDS011;44843;44.728;10.396;2023-01-10T14:25:20;0.70;;;0.60;;
59052;SDS011;44843;44.728;10.396;2023-01-10T14:27:49;1.10;;;0.50;;
59052;SDS011;44843;44.728;10.396;2023-01-10T14:30:32;2.28;;;0.47;;
59052;SDS011;44843;44.728;10.396;2023-01-10T14:33:03;1.75;;;0.50;;
59052;SDS011;44843;44.728;10.396;2023-01-10T14:35:38;0.80;;;0.70;;
59052;SDS011;44843;44.728;10.396;2023-01-10T14:38:14;1.20;;;0.60;;
59052;SDS011;44843;44.728;10.396;2023-01-10T14:40:47;0.68;;;0.60;;
59052;SDS011;44843;44.728;10.396;2023-01-10T14:43:15;1.05;;;0.60;;
59052;SDS011;44843;44.728;10.396;2023-01-10T14:45:47;0.70;;;0.70;;
59052;SDS011;44843;44.728;10.396;2023-01-10T14:48:38;0.60;;;0.60;;
59052;SDS011;44843;44.728;10.396;2023-01-10T14:54:24;1.25;;;0.73;;
59052;SDS011;44843;44.728;10.396;2023-01-10T14:56:49;1.25;;;0.60;;
59052;SDS011;44843;44.728;10.396;2023-01-10T14:59:29;0.55;;;0.55;;
59052;SDS011;44843;44.728;10.396;2023-01-10T15:04:26;1.15;;;0.50;;
59052;SDS011;44843;44.728;10.396;2023-01-10T15:06:57;0.77;;;0.63;;
59052;SDS011;44843;44.728;10.396;2023-01-10T15:09:26;0.73;;;0.57;;
59052;SDS011;44843;44.728;10.396;2023-01-10T15:11:52;2.13;;;0.57;;
59052;SDS011;44843;44.728;10.396;2023-01-10T15:14:19;0.50;;;0.50;;
59052;SDS011;44843;44.728;10.396;2023-01-10T15:16:49;6.68;;;1.33;;
59052;SDS011;44843;44.728;10.396;2023-01-10T15:19:18;1.27;;;0.85;;
59052;SDS011;44843;44.728;10.396;2023-01-10T15:21:45;1.02;;;0.73;;
59052;SDS011;44843;44.728;10.396;2023-01-10T15:26:58;2.10;;;0.90;;
59052;SDS011;44843;44.728;10.396;2023-01-10T15:29:25;1.08;;;0.90;;
59052;SDS011;44843;44.728;10.396;2023-01-10T15:31:52;1.65;;;0.93;;
59052;SDS011;44843;44.728;10.396;2023-01-10T15:34:22;1.88;;;1.02;;
59052;SDS011;44843;44.728;10.396;2023-01-10T15:36:53;1.52;;;0.80;;
59052;SDS011;44843;44.728;10.396;2023-01-10T15:39:26;3.88;;;0.90;;
59052;SDS011;44843;44.728;10.396;2023-01-10T15:41:57;2.33;;;1.08;;
59052;SDS011;44843;44.728;10.396;2023-01-10T15:44:42;1.10;;;0.90;;
59052;SDS011;44843;44.728;10.396;2023-01-10T15:52:56;1.65;;;1.10;;
59052;SDS011;44843;44.728;10.396;2023-01-10T15:55:34;2.88;;;1.42;;
59052;SDS011;44843;44.728;10.396;2023-01-10T15:58:01;2.67;;;1.52;;
59052;SDS011;44843;44.728;10.396;2023-01-10T16:00:28;2.20;;;1.25;;
59052;SDS011;44843;44.728;10.396;2023-01-10T16:02:54;5.57;;;1.40;;
59052;SDS011;44843;44.728;10.396;2023-01-10T16:05:20;2.03;;;1.65;;
59052;SDS011;44843;44.728;10.396;2023-01-10T16:07:46;2.88;;;1.70;;
59052;SDS011;44843;44.728;10.396;2023-01-10T16:12:49;4.45;;;1.40;;
59052;SDS011;44843;44.728;10.396;2023-01-10T16:15:34;4.60;;;1.92;;
59052;SDS011;44843;44.728;10.396;2023-01-10T16:18:02;2.10;;;1.63;;
59052;SDS011;44843;44.728;10.396;2023-01-10T16:20:29;7.43;;;1.33;;
59052;SDS011;44843;44.728;10.396;2023-01-10T16:23:00;1.83;;;1.10;;
59052;SDS011;44843;44.728;10.396;2023-01-10T16:25:30;2.00;;;0.82;;
59052;SDS011;44843;44.728;10.396;2023-01-10T16:27:57;1.65;;;0.73;;
59052;SDS011;44843;44.728;10.396;2023-01-10T16:30:25;4.00;;;1.52;;
59052;SDS011;44843;44.728;10.396;2023-01-10T16:32:52;1.67;;;1.08;;
59052;SDS011;44843;44.728;10.396;2023-01-10T16:35:21;1.02;;;0.85;;
59052;SDS011;44843;44.728;10.396;2023-01-10T16:37:47;2.78;;;1.52;;
59052;SDS011;44843;44.728;10.396;2023-01-10T16:40:23;3.95;;;2.22;;
59052;SDS011;44843;44.728;10.396;2023-01-10T16:42:51;4.78;;;2.47;;
59052;SDS011;44843;44.728;10.396;2023-01-10T16:45:36;5.90;;;2.30;;
59052;SDS011;44843;44.728;10.396;2023-01-10T16:48:01;7.03;;;3.15;;
59052;SDS011;44843;44.728;10.396;2023-01-10T16:50:26;4.45;;;2.15;;
59052;SDS011;44843;44.728;10.396;2023-01-10T16:52:52;5.00;;;2.00;;
59052;SDS011;44843;44.728;10.396;2023-01-10T16:55:19;4.30;;;1.80;;
59052;SDS011;44843;44.728;10.396;2023-01-10T16:57:48;3.53;;;1.63;;
59052;SDS011;44843;44.728;10.396;2023-01-10T17:00:15;2.65;;;1.55;;
59052;SDS011;44843;44.728;10.396;2023-01-10T17:02:42;1.70;;;1.08;;
59052;SDS011;44843;44.728;10.396;2023-01-10T17:05:10;2.25;;;1.20;;
59052;SDS011;44843;44.728;10.396;2023-01-10T17:07:36;1.98;;;1.08;;
59052;SDS011;44843;44.728;10.396;2023-01-10T17:10:02;2.35;;;1.20;;